Time;durP1;ratioP1;P1;durP2;ratioP2;P2;SDS_P1;SDS_P2;PMS_P1;PMS_P2;Temp;Humidity;BMP_temperature;BMP_pressure;BME280_temperature;BME280_humidity;BME280_pressure;Samples;Min_cycle;Max_cycle;Signal;HPM_P1;HPM_P2
2022/10/11 00:02:36;;;;;;;14.80;6.05;;;12.70;99.90;;;;;;8268055;28;20026;-83
2022/10/11 00:06:37;;;;;;;13.18;5.68;;;12.80;99.90;;;;;;8267527;28;20482;-83
2022/10/11 00:10:38;;;;;;;15.55;5.15;;;13.00;99.90;;;;;;8268398;28;20014;-84
2022/10/11 00:14:38;;;;;;;11.95;5.85;;;12.80;99.90;;;;;;8267211;28;20050;-83
2022/10/11 00:18:39;;;;;;;13.35;6.18;;;12.40;99.90;;;;;;8267495;28;20034;-85
2022/10/11 00:22:40;;;;;;;25.60;7.28;;;12.20;99.90;;;;;;8267561;28;20093;-85
2022/10/11 00:26:41;;;;;;;16.52;6.72;;;12.10;99.90;;;;;;8268179;28;20114;-84
2022/10/11 00:30:42;;;;;;;15.73;7.68;;;12.00;99.90;;;;;;8267148;28;20018;-85
2022/10/11 00:34:43;;;;;;;16.85;7.85;;;11.90;99.90;;;;;;8266987;28;20091;-83
2022/10/11 00:38:44;;;;;;;18.60;7.60;;;11.90;99.90;;;;;;8266697;28;20053;-84
2022/10/11 00:42:46;;;;;;;18.35;6.95;;;11.90;99.90;;;;;;8266778;28;20037;-85
2022/10/11 00:47:00;;;;;;;14.90;7.03;;;12.00;99.90;;;;;;8266572;28;20034;-85
2022/10/11 00:51:05;;;;;;;16.08;6.43;;;12.00;99.90;;;;;;8264419;28;20026;-85
2022/10/11 00:55:15;;;;;;;19.55;6.47;;;11.90;99.90;;;;;;8266416;28;20105;-84
2022/10/11 00:59:22;;;;;;;14.77;5.63;;;11.90;99.90;;;;;;8266497;28;20118;-85
2022/10/11 01:03:25;;;;;;;11.38;5.68;;;11.90;99.90;;;;;;8261717;28;20023;-85
2022/10/11 01:07:30;;;;;;;18.08;5.82;;;11.90;99.90;;;;;;8265313;28;20030;-85
2022/10/11 01:11:31;;;;;;;15.05;6.00;;;11.90;99.90;;;;;;8266448;28;20018;-85
2022/10/11 01:15:45;;;;;;;13.00;5.28;;;11.80;99.90;;;;;;8266859;28;20497;-85
2022/10/11 01:20:07;;;;;;;12.13;4.95;;;11.70;99.90;;;;;;8266131;28;20113;-84
2022/10/11 01:24:45;;;;;;;12.00;5.30;;;11.80;99.90;;;;;;8280936;28;20092;-84
2022/10/11 01:29:07;;;;;;;10.43;4.32;;;11.90;99.90;;;;;;8265346;28;20026;-85
2022/10/11 01:33:31;;;;;;;9.65;4.28;;;12.10;99.90;;;;;;8264828;28;20395;-85
2022/10/11 01:37:40;;;;;;;12.60;4.25;;;11.90;99.90;;;;;;8263386;28;20031;-85
2022/10/11 01:41:51;;;;;;;12.05;5.10;;;11.40;99.90;;;;;;8265015;28;20502;-85
2022/10/11 01:45:55;;;;;;;13.43;6.13;;;11.20;99.90;;;;;;8266090;28;20026;-85
2022/10/11 01:49:57;;;;;;;14.63;6.07;;;11.10;99.90;;;;;;8264822;28;20030;-85
2022/10/11 01:53:58;;;;;;;18.10;5.60;;;11.00;99.90;;;;;;8264585;28;20023;-85
2022/10/11 01:58:21;;;;;;;10.52;5.75;;;11.30;99.90;;;;;;8265170;28;20027;-85
2022/10/11 02:02:41;;;;;;;18.40;6.85;;;11.00;99.90;;;;;;8259966;28;20387;-85
2022/10/11 02:07:09;;;;;;;14.52;6.18;;;11.00;99.90;;;;;;8263813;28;20057;-85
2022/10/11 02:11:28;;;;;;;18.77;6.47;;;11.00;99.90;;;;;;8262605;28;20026;-85
2022/10/11 02:15:31;;;;;;;14.38;6.20;;;11.10;99.90;;;;;;8260068;28;20023;-85
2022/10/11 02:19:37;;;;;;;14.55;6.35;;;11.10;99.90;;;;;;8264971;28;20033;-84
2022/10/11 02:23:50;;;;;;;17.80;6.45;;;11.20;99.90;;;;;;8263808;28;20022;-86
2022/10/11 02:27:55;;;;;;;11.70;6.15;;;11.20;99.90;;;;;;8264433;28;20026;-85
2022/10/11 02:31:58;;;;;;;14.38;5.85;;;11.30;99.90;;;;;;8276763;28;20384;-85
2022/10/11 02:36:05;;;;;;;12.75;5.70;;;11.30;99.90;;;;;;8262776;28;20458;-85
2022/10/11 02:40:29;;;;;;;13.77;5.82;;;11.30;99.90;;;;;;8262399;28;20054;-85
2022/10/11 02:44:40;;;;;;;14.70;4.78;;;11.20;99.90;;;;;;8262629;28;20030;-85
2022/10/11 02:48:41;;;;;;;10.10;5.18;;;11.50;99.90;;;;;;8263752;28;20592;-85
2022/10/11 02:52:41;;;;;;;12.52;5.35;;;11.30;99.90;;;;;;8263063;28;20029;-85
2022/10/11 02:56:42;;;;;;;9.90;5.70;;;11.20;99.90;;;;;;8262559;28;20029;-85
2022/10/11 03:00:43;;;;;;;14.02;6.28;;;11.20;99.90;;;;;;8258858;28;20030;-85
2022/10/11 03:04:44;;;;;;;15.55;6.20;;;11.10;99.90;;;;;;8263487;28;20027;-85
2022/10/11 03:08:44;;;;;;;16.13;7.43;;;11.10;99.90;;;;;;8262111;28;20018;-85
2022/10/11 03:12:45;;;;;;;20.40;6.90;;;11.00;99.90;;;;;;8261892;28;20026;-85
2022/10/11 03:16:45;;;;;;;19.75;6.93;;;10.90;99.90;;;;;;8262078;28;20035;-85
2022/10/11 03:20:46;;;;;;;17.50;7.15;;;10.90;99.90;;;;;;8262126;28;20376;-85
2022/10/11 03:24:46;;;;;;;17.73;7.50;;;10.90;99.90;;;;;;8262042;28;20037;-85
2022/10/11 03:28:47;;;;;;;31.80;7.80;;;10.90;99.90;;;;;;8262383;28;20092;-85
2022/10/11 03:32:47;;;;;;;23.25;8.55;;;11.00;99.90;;;;;;8262186;28;20022;-84
2022/10/11 03:36:48;;;;;;;18.60;7.88;;;11.00;99.90;;;;;;8260392;28;20038;-85
2022/10/11 03:40:49;;;;;;;19.45;7.60;;;11.00;99.90;;;;;;8261377;28;20447;-85
2022/10/11 03:44:50;;;;;;;19.88;7.00;;;11.00;99.90;;;;;;8261228;28;20117;-85
2022/10/11 03:48:51;;;;;;;24.08;7.68;;;11.10;99.90;;;;;;8261906;28;20031;-85
2022/10/11 03:52:51;;;;;;;19.85;7.72;;;11.10;99.90;;;;;;8261408;28;20435;-84
2022/10/11 03:56:52;;;;;;;18.63;7.53;;;11.40;99.90;;;;;;8261305;28;20022;-84
2022/10/11 04:00:53;;;;;;;17.60;7.53;;;11.60;99.90;;;;;;8262065;28;20486;-84
2022/10/11 04:04:53;;;;;;;32.53;8.60;;;11.40;99.90;;;;;;8260958;28;20037;-85
2022/10/11 04:08:54;;;;;;;21.83;7.30;;;11.30;99.90;;;;;;8260441;28;20044;-84
2022/10/11 04:12:54;;;;;;;22.55;7.35;;;11.20;99.90;;;;;;8261391;28;20041;-85
2022/10/11 04:16:55;;;;;;;21.90;6.75;;;11.30;99.90;;;;;;8260825;28;20034;-85
2022/10/11 04:20:55;;;;;;;19.70;7.28;;;11.20;99.90;;;;;;8257984;28;20022;-85
2022/10/11 04:24:56;;;;;;;16.30;7.10;;;11.10;99.90;;;;;;8261124;28;20034;-84
2022/10/11 04:28:56;;;;;;;31.30;7.68;;;11.20;99.90;;;;;;8260898;28;20026;-84
2022/10/11 04:32:57;;;;;;;15.45;7.22;;;11.10;99.90;;;;;;8260397;28;20078;-84
2022/10/11 04:36:57;;;;;;;18.15;8.38;;;10.90;99.90;;;;;;8260501;28;20022;-84
2022/10/11 04:41:09;;;;;;;18.63;7.97;;;10.80;99.90;;;;;;8265883;28;20069;-85
2022/10/11 04:45:10;;;;;;;19.00;8.65;;;10.70;99.90;;;;;;8267872;28;20084;-84
2022/10/11 04:49:10;;;;;;;24.92;8.77;;;10.70;99.90;;;;;;8265568;28;20165;-84
2022/10/11 04:53:11;;;;;;;24.90;10.40;;;10.90;99.90;;;;;;8267144;28;20033;-84
2022/10/11 04:57:12;;;;;;;36.70;10.85;;;11.00;99.90;;;;;;8267767;28;20034;-84
2022/10/11 05:01:12;;;;;;;24.15;10.82;;;11.10;99.90;;;;;;8265574;28;20038;-84
2022/10/11 05:05:16;;;;;;;34.20;13.88;;;11.10;99.90;;;;;;8266806;28;20615;-84
2022/10/11 05:09:16;;;;;;;35.60;9.77;;;11.20;99.90;;;;;;8265753;28;20029;-84
2022/10/11 05:13:17;;;;;;;29.08;8.82;;;11.30;99.90;;;;;;8261524;28;20422;-85
2022/10/11 05:17:18;;;;;;;22.13;7.38;;;11.40;99.90;;;;;;8264756;28;20022;-85
2022/10/11 05:21:29;;;;;;;18.00;9.18;;;11.30;99.90;;;;;;8264647;28;20036;-84
2022/10/11 05:25:29;;;;;;;20.23;10.32;;;11.30;99.90;;;;;;8266504;28;20150;-85
2022/10/11 05:29:30;;;;;;;32.92;10.68;;;11.30;99.90;;;;;;8265353;28;20029;-84
2022/10/11 05:33:31;;;;;;;32.90;8.77;;;11.40;99.90;;;;;;8265043;28;20113;-84
2022/10/11 05:37:31;;;;;;;15.48;8.50;;;11.30;99.90;;;;;;8265022;28;20026;-84
2022/10/11 05:41:32;;;;;;;24.75;11.18;;;11.40;99.90;;;;;;8266126;28;20035;-85
2022/10/11 05:45:41;;;;;;;25.48;10.55;;;11.40;99.90;;;;;;8264671;28;20026;-84
2022/10/11 05:49:41;;;;;;;31.65;10.70;;;11.50;99.90;;;;;;8263614;28;20061;-84
2022/10/11 05:53:42;;;;;;;29.08;10.23;;;11.40;99.90;;;;;;8264616;28;20023;-84
2022/10/11 05:57:43;;;;;;;21.20;9.50;;;11.40;99.90;;;;;;8264277;28;20060;-84
2022/10/11 06:01:43;;;;;;;20.77;8.82;;;11.40;99.90;;;;;;8264131;28;20487;-84
2022/10/11 06:05:44;;;;;;;19.38;8.80;;;11.50;99.90;;;;;;8263729;28;20449;-84
2022/10/11 06:09:45;;;;;;;17.50;8.25;;;11.60;99.90;;;;;;8263347;28;20454;-84
2022/10/11 06:13:45;;;;;;;17.80;8.50;;;11.60;99.90;;;;;;8265200;28;20021;-84
2022/10/11 06:17:46;;;;;;;17.83;9.65;;;11.60;99.90;;;;;;8263875;28;20026;-84
2022/10/11 06:21:47;;;;;;;34.08;20.15;;;11.60;99.90;;;;;;8263742;28;20426;-84
2022/10/11 06:26:06;;;;;;;19.63;10.75;;;11.70;99.90;;;;;;8263764;28;20033;-84
2022/10/11 06:30:08;;;;;;;17.27;9.00;;;11.90;99.90;;;;;;8262566;28;20023;-84
2022/10/11 06:34:08;;;;;;;19.88;9.65;;;12.00;99.90;;;;;;8264785;28;20022;-84
2022/10/11 06:38:09;;;;;;;34.15;15.75;;;12.10;99.90;;;;;;8263360;28;20029;-84
2022/10/11 06:42:10;;;;;;;36.95;10.93;;;12.00;99.90;;;;;;8263140;28;20121;-84
2022/10/11 06:46:11;;;;;;;28.67;9.68;;;12.10;99.90;;;;;;8262884;28;20062;-84
2022/10/11 06:50:12;;;;;;;22.92;8.25;;;12.20;99.90;;;;;;8262258;28;20042;-84
2022/10/11 06:54:13;;;;;;;13.55;7.57;;;12.40;99.90;;;;;;8263121;28;20674;-84
2022/10/11 06:58:13;;;;;;;13.52;7.05;;;12.60;99.90;;;;;;8262881;28;20031;-84
2022/10/11 07:02:14;;;;;;;12.27;7.15;;;12.60;99.90;;;;;;8262216;28;20019;-84
2022/10/11 07:06:20;;;;;;;10.35;6.82;;;12.90;99.90;;;;;;8262054;28;20688;-84
2022/10/11 07:10:21;;;;;;;13.57;6.40;;;13.30;99.90;;;;;;8262109;28;20488;-84
2022/10/11 07:14:21;;;;;;;14.57;5.90;;;13.60;99.90;;;;;;8261831;28;20034;-84
2022/10/11 07:18:22;;;;;;;12.57;6.40;;;13.80;99.90;;;;;;8260256;28;20022;-84
2022/10/11 07:22:23;;;;;;;13.75;5.90;;;14.40;99.90;;;;;;8262957;28;20030;-84
2022/10/11 07:26:24;;;;;;;9.85;5.18;;;14.70;99.90;;;;;;8261125;28;20057;-83
2022/10/11 07:30:24;;;;;;;15.73;5.57;;;14.70;99.90;;;;;;8261740;28;20029;-83
2022/10/11 07:34:25;;;;;;;10.48;6.20;;;14.20;99.90;;;;;;8263049;28;20026;-84
2022/10/11 07:38:25;;;;;;;8.35;5.72;;;14.10;99.90;;;;;;8261722;28;20061;-84
2022/10/11 07:42:26;;;;;;;10.48;6.13;;;14.10;99.90;;;;;;8261598;28;20117;-83
2022/10/11 07:46:26;;;;;;;12.07;6.30;;;13.90;99.90;;;;;;8262486;28;20394;-83
2022/10/11 07:50:27;;;;;;;14.25;5.68;;;13.90;99.90;;;;;;8261523;28;20034;-84
2022/10/11 07:54:27;;;;;;;11.88;6.30;;;14.10;99.90;;;;;;8262411;28;20557;-83
2022/10/11 07:58:28;;;;;;;11.93;7.03;;;14.00;99.90;;;;;;8261701;28;20085;-84
2022/10/11 08:02:29;;;;;;;12.45;7.03;;;14.10;99.90;;;;;;8262320;28;20023;-83
2022/10/11 08:06:31;;;;;;;18.30;8.50;;;14.60;99.90;;;;;;8260595;28;20146;-83
2022/10/11 08:10:37;;;;;;;16.20;9.23;;;15.30;99.90;;;;;;8260439;28;20022;-83
2022/10/11 08:14:40;;;;;;;19.00;10.60;;;15.50;99.90;;;;;;8265179;28;20097;-82
2022/10/11 08:18:41;;;;;;;16.20;9.30;;;15.10;99.90;;;;;;8267109;28;20045;-82
2022/10/11 08:22:41;;;;;;;17.38;9.35;;;15.10;99.90;;;;;;8267475;28;20456;-83
2022/10/11 08:26:42;;;;;;;21.05;10.93;;;15.30;99.90;;;;;;8266585;28;20029;-83
2022/10/11 08:30:53;;;;;;;18.55;10.65;;;15.40;99.90;;;;;;8267786;28;20022;-82
2022/10/11 08:34:54;;;;;;;24.30;12.30;;;15.30;99.90;;;;;;8267678;28;20033;-82
2022/10/11 08:38:54;;;;;;;20.48;11.13;;;15.50;99.90;;;;;;8266351;28;20030;-82
2022/10/11 08:43:01;;;;;;;26.20;11.85;;;15.50;99.90;;;;;;8265923;28;20494;-82
2022/10/11 08:47:18;;;;;;;20.42;11.43;;;15.20;99.90;;;;;;8266754;28;20402;-82
2022/10/11 08:51:40;;;;;;;18.38;9.75;;;15.30;99.90;;;;;;8265528;28;20014;-82
2022/10/11 08:55:46;;;;;;;18.92;10.15;;;15.40;99.90;;;;;;8263470;28;20030;-82
2022/10/11 08:59:52;;;;;;;17.75;9.50;;;15.90;99.90;;;;;;8264209;28;20068;-82
2022/10/11 09:03:54;;;;;;;21.05;8.88;;;16.40;99.90;;;;;;8263487;28;20058;-81
2022/10/11 09:07:57;;;;;;;15.73;9.68;;;17.30;99.90;;;;;;8262374;28;20033;-81
2022/10/11 09:12:08;;;;;;;16.00;9.00;;;16.90;99.90;;;;;;8260504;28;20018;-81
2022/10/11 09:16:15;;;;;;;;;;;17.00;99.90;;;;;;8264239;28;20018;-81
2022/10/11 09:20:37;;;;;;;12.95;7.40;;;17.10;99.90;;;;;;8262886;28;19910;-80
2022/10/11 09:25:16;;;;;;;17.48;8.10;;;17.10;99.90;;;;;;8276609;28;20026;-81
2022/10/11 09:29:38;;;;;;;13.27;7.57;;;17.40;99.90;;;;;;8222857;28;20042;-80
2022/10/11 09:33:47;;;;;;;16.20;7.43;;;17.50;99.90;;;;;;8262451;28;20037;-80
2022/10/11 09:38:02;;;;;;;20.48;8.25;;;17.70;99.90;;;;;;8261764;28;20029;-79
2022/10/11 09:42:04;;;;;;;15.85;7.50;;;17.40;99.90;;;;;;8261001;28;20113;-80
2022/10/11 09:46:19;;;;;;;13.85;6.88;;;17.40;99.90;;;;;;8260768;28;20022;-79
2022/10/11 09:50:27;;;;;;;15.43;7.90;;;17.40;99.90;;;;;;8262277;28;20113;-79
2022/10/11 09:54:45;;;;;;;14.27;7.68;;;17.40;99.90;;;;;;8263224;28;20018;-79
2022/10/11 09:58:46;;;;;;;18.33;8.27;;;17.30;99.90;;;;;;8263391;28;20038;-78
2022/10/11 10:02:49;;;;;;;14.07;7.22;;;17.20;99.90;;;;;;8261243;28;20030;-78
2022/10/11 10:07:11;;;;;;;17.10;6.40;;;17.50;99.90;;;;;;8261127;28;20033;-78
2022/10/11 10:11:13;;;;;;;14.57;6.93;;;17.50;99.90;;;;;;8260483;28;20022;-78
2022/10/11 10:15:18;;;;;;;14.80;7.15;;;17.10;99.90;;;;;;8261517;28;20022;-78
2022/10/11 10:19:24;;;;;;;14.88;7.07;;;16.90;99.90;;;;;;8261189;28;20486;-77
2022/10/11 10:23:33;;;;;;;17.58;8.07;;;17.10;99.90;;;;;;8261386;28;20026;-78
2022/10/11 10:27:34;;;;;;;12.53;6.33;;;17.20;99.90;;;;;;8262403;28;20034;-77
2022/10/11 10:31:49;;;;;;;15.13;6.55;;;17.50;99.90;;;;;;8256880;28;20022;-78
2022/10/11 10:36:02;;;;;;;13.02;5.70;;;17.80;99.90;;;;;;8257292;28;20520;-78
2022/10/11 10:40:17;;;;;;;15.70;6.10;;;17.70;99.90;;;;;;8261619;28;20487;-78
2022/10/11 10:44:18;;;;;;;12.13;6.00;;;17.80;99.90;;;;;;8260593;28;20025;-76
2022/10/11 10:48:49;;;;;;;12.65;5.00;;;18.20;99.90;;;;;;8262011;28;20050;-78
2022/10/11 10:53:05;;;;;;;12.45;5.82;;;18.50;99.90;;;;;;8260387;28;20090;-77
2022/10/11 10:57:27;;;;;;;14.02;6.38;;;18.90;99.90;;;;;;8260088;28;20117;-78
2022/10/11 11:01:34;;;;;;;16.13;5.10;;;20.10;99.90;;;;;;8251542;28;20032;-78
2022/10/11 11:05:41;;;;;;;12.23;5.00;;;21.20;99.90;;;;;;8260712;28;20034;-78
2022/10/11 11:10:01;;;;;;;9.27;4.85;;;21.20;99.90;;;;;;8260543;28;20030;-78
2022/10/11 11:14:16;;;;;;;10.98;4.15;;;19.70;99.90;;;;;;8258749;28;20430;-78
2022/10/11 11:18:37;;;;;;;12.55;4.70;;;19.10;99.90;;;;;;8254789;28;20703;-78
2022/10/11 11:22:47;;;;;;;9.63;4.97;;;19.00;99.90;;;;;;8257735;28;20041;-79
2022/10/11 11:27:09;;;;;;;11.13;3.67;;;20.10;99.90;;;;;;8256005;28;20426;-78
2022/10/11 11:31:34;;;;;;;11.25;4.18;;;21.90;99.90;;;;;;8258715;28;20018;-78
2022/10/11 11:35:42;;;;;;;14.52;5.70;;;22.10;99.90;;;;;;8271807;28;20030;-79
2022/10/11 11:39:50;;;;;;;13.80;7.40;;;21.40;99.90;;;;;;8259050;28;20054;-79
2022/10/11 11:44:20;;;;;;;16.58;7.80;;;19.60;99.90;;;;;;8259396;28;20030;-78
2022/10/11 11:48:24;;;;;;;15.13;7.85;;;17.70;99.90;;;;;;8270351;28;20034;-80
2022/10/11 11:52:30;;;;;;;15.18;8.60;;;17.00;99.90;;;;;;8258145;28;20025;-79
2022/10/11 11:56:47;;;;;;;19.13;9.32;;;16.60;99.90;;;;;;8259654;28;20023;-79
2022/10/11 12:00:57;;;;;;;13.80;8.38;;;16.60;99.90;;;;;;8258705;28;20022;-78
2022/10/11 12:04:58;;;;;;;14.73;7.87;;;16.60;99.90;;;;;;8257603;28;20027;-79
2022/10/11 12:09:31;;;;;;;14.90;8.20;;;16.60;99.90;;;;;;8255946;28;20027;-79
2022/10/11 12:13:38;;;;;;;16.85;7.75;;;16.70;99.90;;;;;;8253719;28;20446;-81
2022/10/11 12:18:03;;;;;;;13.52;7.00;;;16.60;99.90;;;;;;8258207;28;20065;-80
2022/10/11 12:22:34;;;;;;;11.20;6.75;;;16.60;99.90;;;;;;8260471;28;20027;-80
2022/10/11 12:26:48;;;;;;;14.40;6.80;;;16.70;99.90;;;;;;8257791;28;20057;-81
2022/10/11 12:30:52;;;;;;;12.23;7.13;;;16.60;99.90;;;;;;8259346;28;20089;-79
2022/10/11 12:35:27;;;;;;;15.80;7.13;;;16.70;99.90;;;;;;8258617;28;20446;-80
2022/10/11 12:39:41;;;;;;;13.85;6.40;;;16.80;99.90;;;;;;8257019;28;20105;-80
2022/10/11 12:43:48;;;;;;;13.70;6.80;;;17.00;99.90;;;;;;8259820;28;20030;-80
2022/10/11 12:47:59;;;;;;;11.80;6.38;;;17.20;99.90;;;;;;8260709;28;20045;-80
2022/10/11 12:52:12;;;;;;;12.18;5.47;;;17.90;99.90;;;;;;8257708;28;20030;-80
2022/10/11 12:56:38;;;;;;;11.30;5.03;;;18.60;99.90;;;;;;8258670;28;20022;-79
2022/10/11 13:00:38;;;;;;;13.10;6.10;;;18.50;99.90;;;;;;8261202;28;20415;-80
2022/10/11 13:04:39;;;;;;;12.65;5.50;;;18.60;99.90;;;;;;8265233;28;20022;-80
2022/10/11 13:08:42;;;;;;;10.40;4.18;;;18.50;99.90;;;;;;8263547;28;20037;-80
2022/10/11 13:12:45;;;;;;;13.55;5.55;;;18.30;99.90;;;;;;8264610;28;20023;-80
2022/10/11 13:17:15;;;;;;;13.23;5.85;;;18.40;99.90;;;;;;8264438;28;20046;-80
2022/10/11 13:21:34;;;;;;;11.07;5.38;;;18.10;99.90;;;;;;8265317;28;20029;-83
2022/10/11 13:25:36;;;;;;;14.00;5.75;;;18.10;99.90;;;;;;8250645;28;20671;-80
2022/10/11 13:29:39;;;;;;;8.13;5.32;;;17.80;99.90;;;;;;8257496;28;20023;-80
2022/10/11 13:33:43;;;;;;;12.98;5.53;;;17.40;99.90;;;;;;8255872;28;20026;-79
2022/10/11 13:37:46;;;;;;;15.23;5.32;;;17.20;99.90;;;;;;8263188;28;20018;-79
2022/10/11 13:41:46;;;;;;;15.15;5.63;;;17.30;99.90;;;;;;8263099;28;20034;-79
2022/10/11 13:45:47;;;;;;;15.48;5.15;;;18.00;99.90;;;;;;8263266;28;20086;-80
2022/10/11 13:50:17;;;;;;;12.80;4.80;;;18.50;99.90;;;;;;8257652;28;20371;-79
2022/10/11 13:54:17;;;;;;;9.82;5.05;;;18.50;99.90;;;;;;8256444;28;20022;-79
2022/10/11 13:58:43;;;;;;;11.93;5.25;;;17.70;99.90;;;;;;8257907;28;20382;-78
2022/10/11 14:02:49;;;;;;;14.48;5.25;;;17.80;99.90;;;;;;8256173;28;20109;-79
2022/10/11 14:07:01;;;;;;;10.45;5.18;;;17.50;99.90;;;;;;8255601;28;20525;-79
2022/10/11 14:11:01;;;;;;;9.88;5.13;;;17.60;99.90;;;;;;8258734;28;20498;-79
2022/10/11 14:15:05;;;;;;;9.77;5.18;;;17.30;99.90;;;;;;8260972;28;20106;-79
2022/10/11 14:19:09;;;;;;;12.73;5.68;;;17.10;99.90;;;;;;8260613;28;20053;-79
2022/10/11 14:23:12;;;;;;;11.27;5.30;;;17.30;99.90;;;;;;8259415;28;20019;-79
2022/10/11 14:27:20;;;;;;;12.70;5.25;;;17.40;99.90;;;;;;8260977;28;20129;-78
2022/10/11 14:31:21;;;;;;;12.20;6.15;;;17.20;99.90;;;;;;8255885;28;20108;-78
2022/10/11 14:35:24;;;;;;;14.00;6.40;;;17.00;99.90;;;;;;8260443;28;20026;-78
2022/10/11 14:39:26;;;;;;;16.42;6.07;;;16.70;99.90;;;;;;8261334;28;20022;-79
2022/10/11 14:43:27;;;;;;;17.42;6.10;;;16.50;99.90;;;;;;8261968;28;20042;-79
2022/10/11 14:47:28;;;;;;;13.88;6.85;;;16.70;99.90;;;;;;8259546;28;20097;-79
2022/10/11 14:51:33;;;;;;;13.65;6.05;;;16.40;99.90;;;;;;8260377;28;20065;-78
2022/10/11 14:55:38;;;;;;;9.40;5.88;;;16.40;99.90;;;;;;8261687;28;20030;-78
2022/10/11 14:59:41;;;;;;;13.25;6.90;;;16.40;99.90;;;;;;8260147;28;20406;-79
2022/10/11 15:03:42;;;;;;;11.27;5.72;;;16.20;99.90;;;;;;8257847;28;20033;-79
2022/10/11 15:07:43;;;;;;;11.55;5.95;;;15.90;99.90;;;;;;8258117;28;20118;-79
2022/10/11 15:11:43;;;;;;;12.77;6.70;;;15.90;99.90;;;;;;8258649;28;20110;-79
2022/10/11 15:15:44;;;;;;;15.15;6.82;;;15.80;99.90;;;;;;8256851;28;20010;-79
2022/10/11 15:19:45;;;;;;;15.10;7.13;;;15.70;99.90;;;;;;8256190;28;20038;-79
2022/10/11 15:23:47;;;;;;;11.43;6.82;;;15.60;99.90;;;;;;8257385;28;20030;-79
2022/10/11 15:27:49;;;;;;;13.40;6.55;;;15.50;99.90;;;;;;8252729;28;20498;-78
2022/10/11 15:31:51;;;;;;;12.10;6.25;;;15.50;99.90;;;;;;8252511;28;20506;-79
2022/10/11 15:35:52;;;;;;;18.30;6.95;;;15.50;99.90;;;;;;8257624;28;20018;-78
2022/10/11 15:39:54;;;;;;;14.80;6.80;;;15.40;99.90;;;;;;8241686;28;20414;-78
2022/10/11 15:43:56;;;;;;;13.23;7.25;;;15.30;99.90;;;;;;8259207;28;20031;-79
2022/10/11 15:47:58;;;;;;;10.85;6.60;;;15.10;99.90;;;;;;8269311;28;20037;-78
2022/10/11 15:51:59;;;;;;;15.05;7.40;;;15.00;99.90;;;;;;8253777;28;20030;-79
2022/10/11 15:56:07;;;;;;;13.50;7.43;;;15.00;99.90;;;;;;8257696;28;20477;-78
2022/10/11 16:00:09;;;;;;;13.23;7.07;;;15.10;99.90;;;;;;8259096;28;20101;-78
2022/10/11 16:04:13;;;;;;;12.52;6.75;;;15.10;99.90;;;;;;8251892;28;20044;-78
2022/10/11 16:08:14;;;;;;;13.65;7.30;;;15.10;99.90;;;;;;8256630;28;20029;-78
2022/10/11 16:12:15;;;;;;;11.77;7.40;;;15.10;99.90;;;;;;8258462;28;20463;-78
2022/10/11 16:16:17;;;;;;;13.30;7.65;;;14.90;99.90;;;;;;8257271;28;20031;-78
2022/10/11 16:20:24;;;;;;;12.15;7.32;;;14.70;99.90;;;;;;8258924;28;20026;-78
2022/10/11 16:24:26;;;;;;;15.20;7.68;;;14.60;99.90;;;;;;8253429;28;20056;-78
2022/10/11 16:28:28;;;;;;;21.08;8.68;;;14.50;99.90;;;;;;8268805;28;20522;-79
2022/10/11 16:32:33;;;;;;;14.45;8.30;;;14.30;99.90;;;;;;8258668;28;20022;-79
2022/10/11 16:36:35;;;;;;;18.10;8.38;;;14.00;99.90;;;;;;8263848;28;20022;-79
2022/10/11 16:40:41;;;;;;;17.80;7.47;;;13.70;99.90;;;;;;8264616;28;20037;-79
2022/10/11 16:44:41;;;;;;;13.27;8.20;;;13.50;99.90;;;;;;8261605;28;20030;-78
2022/10/11 16:48:42;;;;;;;15.38;9.05;;;13.20;99.90;;;;;;8259989;28;20029;-79
2022/10/11 16:52:42;;;;;;;14.10;8.93;;;12.90;99.90;;;;;;8256179;28;20627;-79
2022/10/11 16:56:43;;;;;;;17.33;9.45;;;12.90;99.90;;;;;;8260482;28;20023;-77
2022/10/11 17:00:44;;;;;;;16.50;9.38;;;12.90;99.90;;;;;;8254340;28;20023;-78
2022/10/11 17:04:45;;;;;;;18.02;10.75;;;12.70;99.90;;;;;;8257918;28;20054;-78
2022/10/11 17:08:45;;;;;;;19.33;10.82;;;12.50;99.90;;;;;;8257848;28;20411;-78
2022/10/11 17:12:46;;;;;;;27.70;16.60;;;12.40;99.90;;;;;;8259803;28;20033;-78
2022/10/11 17:16:47;;;;;;;24.55;11.30;;;12.40;99.90;;;;;;8260126;28;20069;-78
2022/10/11 17:20:47;;;;;;;30.67;19.63;;;12.50;99.90;;;;;;8259952;28;20030;-78
2022/10/11 17:24:48;;;;;;;26.20;13.95;;;12.50;99.90;;;;;;8251004;28;20027;-78
2022/10/11 17:28:49;;;;;;;16.48;8.55;;;12.50;99.90;;;;;;8257921;28;20033;-78
2022/10/11 17:32:51;;;;;;;17.55;9.27;;;12.70;99.90;;;;;;8269094;28;20080;-78
2022/10/11 17:36:51;;;;;;;19.25;10.25;;;12.90;99.90;;;;;;8257663;28;20072;-78
2022/10/11 17:41:03;;;;;;;25.73;10.70;;;12.70;99.90;;;;;;8262320;28;20023;-77
2022/10/11 17:45:04;;;;;;;25.13;11.48;;;12.30;99.90;;;;;;8257614;28;20014;-77
2022/10/11 17:49:06;;;;;;;22.67;10.30;;;12.10;99.90;;;;;;8258696;28;20026;-77
2022/10/11 17:53:07;;;;;;;18.95;11.55;;;12.20;99.90;;;;;;8259936;28;20081;-78
2022/10/11 17:57:07;;;;;;;25.83;11.25;;;12.00;99.90;;;;;;8257973;28;20560;-77
2022/10/11 18:01:13;;;;;;;25.33;12.93;;;11.70;99.90;;;;;;8258664;28;20509;-77
2022/10/11 18:05:15;;;;;;;25.48;11.90;;;11.70;99.90;;;;;;8259059;28;20045;-78
2022/10/11 18:09:17;;;;;;;22.70;12.63;;;11.70;99.90;;;;;;8258431;28;20153;-77
2022/10/11 18:13:17;;;;;;;25.23;12.60;;;11.60;99.90;;;;;;8258068;28;20022;-78
2022/10/11 18:17:18;;;;;;;20.08;11.85;;;11.60;99.90;;;;;;8257266;28;20030;-76
2022/10/11 18:21:19;;;;;;;22.45;12.63;;;11.60;99.90;;;;;;8255561;28;20113;-77
2022/10/11 18:25:19;;;;;;;24.67;12.38;;;11.70;99.90;;;;;;8255252;28;20037;-78
2022/10/11 18:29:20;;;;;;;28.70;13.90;;;11.60;99.90;;;;;;8257991;28;20441;-79
2022/10/11 18:33:20;;;;;;;27.58;14.50;;;11.60;99.90;;;;;;8254608;28;20018;-77
2022/10/11 18:37:21;;;;;;;22.13;13.15;;;11.70;99.90;;;;;;8253008;28;20035;-77
2022/10/11 18:41:23;;;;;;;24.52;13.23;;;11.80;99.90;;;;;;8246328;28;20030;-78
2022/10/11 18:45:24;;;;;;;25.50;12.80;;;11.80;99.90;;;;;;8250143;28;20053;-78
2022/10/11 18:49:25;;;;;;;26.35;12.57;;;11.70;99.90;;;;;;8251253;28;20034;-79
2022/10/11 18:53:25;;;;;;;23.92;12.10;;;11.70;99.90;;;;;;8248050;28;20073;-79
2022/10/11 18:57:26;;;;;;;34.28;14.10;;;11.60;99.90;;;;;;8243148;28;20038;-79
2022/10/11 19:01:29;;;;;;;33.03;14.30;;;11.60;99.90;;;;;;8243542;28;20050;-79
2022/10/11 19:05:30;;;;;;;26.55;14.73;;;11.50;99.90;;;;;;8244053;28;20026;-79
2022/10/11 19:09:30;;;;;;;29.40;15.07;;;11.40;99.90;;;;;;8244993;28;20038;-79
2022/10/11 19:13:31;;;;;;;36.53;16.77;;;11.40;99.90;;;;;;8242971;28;20117;-78
2022/10/11 19:17:32;;;;;;;31.55;16.25;;;11.50;99.90;;;;;;8240730;28;20108;-78
2022/10/11 19:21:33;;;;;;;34.92;15.93;;;11.50;99.90;;;;;;8241282;28;20030;-78
2022/10/11 19:25:36;;;;;;;33.95;15.82;;;11.70;99.90;;;;;;8244219;28;20093;-78
2022/10/11 19:29:37;;;;;;;36.70;16.20;;;11.80;99.90;;;;;;8253561;28;20093;-78
2022/10/11 19:33:38;;;;;;;38.10;15.85;;;11.80;99.90;;;;;;8255532;28;20077;-78
2022/10/11 19:37:38;;;;;;;37.17;15.70;;;11.90;99.90;;;;;;8256370;28;20031;-78
2022/10/11 19:41:39;;;;;;;28.67;14.82;;;12.00;99.90;;;;;;8256836;28;20042;-78
2022/10/11 19:45:40;;;;;;;22.85;13.40;;;12.50;99.90;;;;;;8255186;28;20506;-78
2022/10/11 19:49:40;;;;;;;24.83;12.57;;;13.00;99.90;;;;;;8254868;28;20034;-78
2022/10/11 19:53:42;;;;;;;16.77;10.77;;;12.90;99.90;;;;;;8256183;28;20902;-78
2022/10/11 19:57:42;;;;;;;22.60;11.82;;;12.90;99.90;;;;;;8256637;28;20062;-77
2022/10/11 20:01:43;;;;;;;22.95;12.13;;;12.40;99.90;;;;;;8257018;28;20764;-78
2022/10/11 20:05:43;;;;;;;24.42;12.02;;;12.20;99.90;;;;;;8255366;28;20038;-79
2022/10/11 20:09:44;;;;;;;24.13;12.25;;;12.00;99.90;;;;;;8258253;28;20034;-79
2022/10/11 20:13:45;;;;;;;16.85;10.32;;;11.70;99.90;;;;;;8263998;28;20057;-78
2022/10/11 20:17:49;;;;;;;22.48;12.48;;;11.60;99.90;;;;;;8262782;28;20571;-78
2022/10/11 20:21:50;;;;;;;27.45;15.85;;;11.60;99.90;;;;;;8262522;28;20026;-79
2022/10/11 20:26:13;;;;;;;31.50;13.93;;;11.50;99.90;;;;;;8264165;28;20018;-78
2022/10/11 20:30:14;;;;;;;28.83;13.70;;;11.40;99.90;;;;;;8264405;28;20383;-78
2022/10/11 20:34:15;;;;;;;39.60;16.67;;;11.60;99.90;;;;;;8262937;28;20093;-78
2022/10/11 20:38:15;;;;;;;34.28;16.40;;;11.40;99.90;;;;;;8262206;28;20030;-78
2022/10/11 20:42:16;;;;;;;41.45;17.90;;;11.20;99.90;;;;;;8265312;28;20046;-79
2022/10/11 20:46:21;;;;;;;34.75;15.32;;;11.00;99.90;;;;;;8264605;28;20375;-78
2022/10/11 20:50:22;;;;;;;33.72;16.10;;;11.00;99.90;;;;;;8261528;28;20402;-79
2022/10/11 20:54:23;;;;;;;39.72;18.58;;;11.10;99.90;;;;;;8264337;28;20022;-78
2022/10/11 20:58:23;;;;;;;34.95;17.60;;;11.00;99.90;;;;;;8264619;28;20038;-79